createdAt,value
2022-09-20T00:04:45.046Z,9.04
2022-09-20T00:09:46.531Z,9.03
2022-09-20T00:14:48.001Z,8.97
2022-09-20T00:19:49.449Z,8.92
2022-09-20T00:24:50.821Z,8.85
2022-09-20T00:29:53.243Z,8.80
2022-09-20T00:35:10.954Z,8.77
2022-09-20T00:40:17.140Z,8.74
2022-09-20T00:45:23.016Z,8.72
2022-09-20T00:50:27.933Z,8.69
2022-09-20T00:55:30.118Z,8.67
2022-09-20T01:00:32.191Z,8.62
2022-09-20T01:05:34.543Z,8.57
2022-09-20T01:10:36.570Z,8.55
2022-09-20T01:15:39.751Z,8.51
2022-09-20T01:20:43.532Z,8.45
2022-09-20T01:26:03.290Z,8.47
2022-09-20T01:31:04.762Z,8.51
2022-09-20T01:36:06.867Z,8.52
2022-09-20T01:41:22.331Z,8.57
2022-09-20T01:46:28.548Z,8.67
2022-09-20T01:51:59.746Z,8.80
2022-09-20T01:57:17.844Z,8.89
2022-09-20T02:02:44.216Z,8.79
2022-09-20T02:08:01.630Z,8.67
2022-09-20T02:13:38.568Z,8.59
2022-09-20T02:19:01.760Z,8.61
2022-09-20T02:24:06.406Z,8.74
2022-09-20T02:29:36.207Z,8.91
2022-09-20T02:34:47.044Z,9.00
2022-09-20T02:40:09.267Z,9.04
2022-09-20T02:45:44.173Z,9.07
2022-09-20T02:51:16.193Z,9.14
2022-09-20T02:56:29.594Z,9.22
2022-09-20T03:01:56.296Z,9.37
2022-09-20T03:07:20.671Z,9.52
2022-09-20T03:12:57.279Z,9.67
2022-09-20T03:18:21.250Z,9.84
2022-09-20T03:23:33.034Z,9.94
2022-09-20T03:28:50.155Z,9.99
2022-09-20T03:34:03.635Z,10.08
2022-09-20T03:39:31.734Z,10.02
2022-09-20T03:44:34.188Z,10.05
2022-09-20T03:49:55.119Z,10.12
2022-09-20T03:55:41.576Z,10.08
2022-09-20T04:01:03.281Z,10.10
2022-09-20T04:06:20.605Z,10.20
2022-09-20T04:11:38.312Z,10.26
2022-09-20T04:16:50.831Z,10.27
2022-09-20T04:21:58.027Z,10.21
2022-09-20T04:27:05.131Z,10.15
2022-09-20T04:32:25.499Z,10.07
2022-09-20T04:37:33.017Z,10.02
2022-09-20T04:43:04.054Z,9.95
2022-09-20T04:48:24.879Z,9.86
2022-09-20T04:53:51.281Z,9.73
2022-09-20T04:59:30.608Z,9.60
2022-09-20T05:04:59.325Z,9.51
2022-09-20T05:10:32.190Z,9.47
2022-09-20T05:15:36.924Z,9.46
2022-09-20T05:21:29.206Z,9.51
2022-09-20T05:27:00.046Z,9.63
2022-09-20T05:32:23.567Z,9.75
2022-09-20T05:38:06.111Z,10.07
2022-09-20T05:43:14.315Z,11.04
2022-09-20T05:49:01.035Z,11.97
2022-09-20T05:54:39.653Z,13.87
2022-09-20T05:59:56.752Z,16.24
2022-09-20T06:05:40.133Z,18.02
2022-09-20T06:10:41.841Z,19.67
2022-09-20T06:16:25.452Z,20.74
2022-09-20T06:21:48.564Z,23.27
2022-09-20T06:26:54.160Z,24.46
2022-09-20T06:31:56.723Z,24.38
2022-09-20T06:37:29.820Z,23.24
2022-09-20T06:42:31.988Z,25.05
2022-09-20T06:47:38.117Z,24.91
2022-09-20T06:52:43.436Z,24.17
2022-09-20T06:57:46.868Z,23.63
2022-09-20T07:02:51.100Z,23.21
2022-09-20T07:08:00.004Z,22.50
2022-09-20T07:13:04.445Z,22.34
2022-09-20T07:18:08.251Z,20.80
2022-09-20T07:23:10.677Z,20.26
2022-09-20T07:28:15.254Z,20.79
2022-09-20T07:33:21.621Z,21.08
2022-09-20T07:38:23.408Z,22.89
2022-09-20T07:43:25.264Z,26.23
2022-09-20T07:48:31.038Z,27.24
2022-09-20T07:53:32.996Z,28.89
2022-09-20T07:58:36.461Z,30.00
2022-09-20T08:03:42.428Z,29.34
2022-09-20T08:08:44.214Z,30.73
2022-09-20T08:14:07.709Z,31.22
2022-09-20T08:19:23.934Z,29.43
2022-09-20T08:24:26.780Z,26.78
2022-09-20T08:29:29.280Z,26.52
2022-09-20T08:34:31.817Z,26.84
2022-09-20T08:45:05.414Z,28.75
2022-09-20T08:50:17.327Z,28.65
2022-09-20T08:55:28.293Z,27.19
2022-09-20T09:00:33.316Z,26.81
2022-09-20T09:05:47.159Z,27.11
2022-09-20T09:10:58.824Z,26.94
2022-09-20T09:16:12.827Z,27.28
2022-09-20T09:21:43.011Z,27.57
2022-09-20T09:26:44.763Z,27.30
2022-09-20T09:31:49.117Z,26.90
2022-09-20T09:36:50.599Z,27.05
2022-09-20T09:41:52.123Z,27.30
2022-09-20T09:46:54.121Z,27.93
2022-09-20T09:51:55.607Z,27.02
2022-09-20T09:57:05.700Z,25.97
2022-09-20T10:02:19.458Z,24.81
2022-09-20T10:07:29.831Z,24.25
2022-09-20T10:12:49.856Z,23.78
2022-09-20T10:17:57.477Z,23.78
2022-09-20T10:24:01.439Z,23.91
2022-09-20T10:28:59.010Z,24.58
2022-09-20T10:34:17.470Z,24.88
2022-09-20T10:39:41.123Z,23.88
2022-09-20T10:45:53.389Z,22.92
2022-09-20T10:51:00.157Z,22.56
2022-09-20T10:56:24.488Z,22.08
2022-09-20T11:02:08.477Z,21.65
2022-09-20T11:07:53.381Z,21.41
2022-09-20T11:13:02.865Z,20.92
2022-09-20T11:18:24.528Z,19.78
2022-09-20T11:23:56.607Z,19.71
2022-09-20T11:29:09.105Z,20.18
2022-09-20T11:34:20.153Z,20.45
2022-09-20T11:39:48.077Z,21.27
2022-09-20T11:44:50.640Z,22.09
2022-09-20T11:50:04.094Z,22.58
2022-09-20T11:55:25.174Z,22.57
2022-09-20T12:00:31.475Z,21.73
2022-09-20T12:05:42.323Z,21.34
2022-09-20T12:10:58.587Z,21.21
2022-09-20T12:16:05.123Z,20.45
2022-09-20T12:21:15.379Z,19.73
2022-09-20T12:26:23.146Z,19.69
2022-09-20T12:31:33.796Z,19.07
2022-09-20T12:36:38.324Z,18.41
2022-09-20T12:42:10.326Z,17.97
2022-09-20T12:47:11.695Z,17.66
2022-09-20T12:52:58.900Z,18.06
2022-09-20T12:58:02.359Z,18.17
2022-09-20T13:03:31.819Z,18.03
2022-09-20T13:08:48.192Z,18.45
2022-09-20T13:13:58.279Z,18.85
2022-09-20T13:19:07.429Z,19.02
2022-09-20T13:24:17.459Z,19.01
2022-09-20T13:29:40.614Z,19.03
2022-09-20T13:34:41.999Z,19.12
2022-09-20T13:39:43.746Z,19.23
2022-09-20T13:44:46.096Z,19.29
2022-09-20T13:49:47.620Z,18.84
2022-09-20T13:54:49.150Z,18.38
2022-09-20T13:59:50.931Z,17.83
2022-09-20T14:04:56.132Z,17.84
2022-09-20T14:09:58.876Z,18.00
2022-09-20T14:15:04.687Z,18.32
2022-09-20T14:20:06.857Z,18.94
2022-09-20T14:25:14.426Z,19.19
2022-09-20T14:30:31.769Z,19.24
2022-09-20T14:35:33.679Z,19.37
2022-09-20T14:40:44.844Z,19.35
2022-09-20T14:45:53.323Z,19.18
2022-09-20T14:51:18.080Z,18.97
2022-09-20T14:56:37.698Z,18.82
2022-09-20T15:01:42.591Z,18.99
2022-09-20T15:06:44.251Z,19.22
2022-09-20T15:11:45.733Z,19.26
2022-09-20T15:16:47.345Z,19.06
2022-09-20T15:21:48.953Z,18.90
2022-09-20T15:26:50.422Z,18.41
2022-09-20T15:31:52.062Z,18.07
2022-09-20T15:36:54.751Z,17.88
2022-09-20T15:41:56.550Z,17.66
2022-09-20T15:46:58.137Z,17.32
2022-09-20T15:51:59.830Z,17.20
2022-09-20T15:57:02.025Z,17.11
2022-09-20T16:02:03.671Z,17.08
2022-09-20T16:07:05.749Z,17.13
2022-09-20T16:12:07.390Z,17.15
2022-09-20T16:17:08.844Z,17.04
2022-09-20T16:22:10.796Z,16.93
2022-09-20T16:27:12.222Z,16.83
2022-09-20T16:32:13.767Z,16.81
2022-09-20T16:37:16.963Z,16.74
2022-09-20T16:42:18.636Z,16.59
2022-09-20T16:47:25.103Z,16.42
2022-09-20T16:52:26.646Z,16.25
2022-09-20T16:57:28.885Z,16.15
2022-09-20T17:02:30.281Z,16.04
2022-09-20T17:07:32.117Z,15.96
2022-09-20T17:12:34.502Z,15.90
2022-09-20T17:17:35.973Z,15.78
2022-09-20T17:22:37.589Z,15.55
2022-09-20T17:27:39.200Z,15.12
2022-09-20T17:32:48.122Z,14.81
2022-09-20T17:37:49.545Z,14.61
2022-09-20T17:42:50.974Z,14.45
2022-09-20T17:47:56.748Z,14.33
2022-09-20T17:52:58.195Z,14.26
2022-09-20T17:58:00.163Z,14.23
2022-09-20T18:03:04.865Z,14.20
2022-09-20T18:08:06.711Z,14.19
2022-09-20T18:13:08.306Z,14.16
2022-09-20T18:18:09.709Z,14.05
2022-09-20T18:23:11.219Z,13.89
2022-09-20T18:28:12.631Z,13.76
2022-09-20T18:33:16.690Z,13.64
2022-09-20T18:38:18.941Z,13.60
2022-09-20T18:43:20.416Z,13.46
2022-09-20T18:48:24.775Z,13.37
2022-09-20T18:53:32.515Z,13.37
2022-09-20T18:58:34.875Z,13.33
2022-09-20T19:03:58.726Z,13.24
2022-09-20T19:09:10.392Z,13.18
2022-09-20T19:14:21.951Z,13.22
2022-09-20T19:19:36.586Z,13.24
2022-09-20T19:24:43.931Z,13.27
2022-09-20T19:29:45.874Z,13.27
2022-09-20T19:34:51.256Z,13.23
2022-09-20T19:40:01.933Z,12.98
2022-09-20T19:45:22.232Z,12.72
2022-09-20T19:50:36.107Z,12.58
2022-09-20T19:55:37.893Z,12.58
2022-09-20T20:00:40.219Z,12.56
2022-09-20T20:06:16.875Z,12.44
2022-09-20T20:11:35.746Z,12.42
2022-09-20T20:16:53.189Z,12.36
2022-09-20T20:21:54.528Z,12.27
2022-09-20T20:26:55.935Z,12.06
2022-09-20T20:31:57.392Z,11.94
2022-09-20T20:37:00.905Z,11.84
2022-09-20T20:42:03.836Z,11.75
2022-09-20T20:47:06.604Z,11.70
2022-09-20T20:52:08.967Z,11.63
2022-09-20T20:57:10.382Z,11.54
2022-09-20T21:02:11.889Z,11.38
2022-09-20T21:07:13.305Z,11.28
2022-09-20T21:12:14.768Z,11.20
2022-09-20T21:17:16.320Z,11.13
2022-09-20T21:22:17.713Z,11.05
2022-09-20T21:27:20.662Z,11.00
2022-09-20T21:32:22.058Z,10.89
2022-09-20T21:37:23.485Z,10.81
2022-09-20T21:42:27.259Z,10.77
2022-09-20T21:47:28.817Z,10.67
2022-09-20T21:52:30.582Z,10.41
2022-09-20T21:57:32.021Z,10.23
2022-09-20T22:02:34.283Z,10.15
2022-09-20T22:07:35.733Z,10.14
2022-09-20T22:12:37.114Z,10.12
2022-09-20T22:17:38.542Z,10.08
2022-09-20T22:22:39.989Z,10.04
2022-09-20T22:27:41.369Z,9.98
2022-09-20T22:32:43.045Z,9.90
2022-09-20T22:37:44.425Z,9.82
2022-09-20T22:42:45.856Z,9.75
2022-09-20T22:47:47.384Z,9.69
2022-09-20T22:52:48.772Z,9.62
2022-09-20T22:57:53.337Z,9.53
2022-09-20T23:02:58.896Z,9.45
2022-09-20T23:08:00.449Z,9.36
2022-09-20T23:13:02.417Z,9.28
2022-09-20T23:18:05.037Z,9.20
2022-09-20T23:23:06.449Z,9.13
2022-09-20T23:28:07.850Z,9.07
2022-09-20T23:33:09.421Z,8.96
2022-09-20T23:38:11.471Z,8.88
2022-09-20T23:43:13.014Z,8.76
2022-09-20T23:48:14.392Z,8.66
2022-09-20T23:53:15.928Z,8.57
2022-09-20T23:58:17.371Z,8.56
